Time;durP1;ratioP1;P1;durP2;ratioP2;P2;SDS_P1;SDS_P2;PMS_P1;PMS_P2;Temp;Humidity;BMP_temperature;BMP_pressure;BME280_temperature;BME280_humidity;BME280_pressure;Samples;Min_cycle;Max_cycle;Signal;HPM_P1;HPM_P2
2023/05/15 00:00:46;;;;;;;;;;;20.60;62.80;;;;;;10454813;27;93888;-66
2023/05/15 00:05:48;;;;;;;;;;;20.60;62.80;;;;;;10454716;27;94581;-66
2023/05/15 00:10:49;;;;;;;;;;;20.60;62.80;;;;;;10453617;27;93501;-66
2023/05/15 00:16:02;;;;;;;;;;;20.60;62.70;;;;;;10453435;27;93750;-67
2023/05/15 00:21:04;;;;;;;;;;;20.60;62.80;;;;;;10455691;27;93663;-66
2023/05/15 00:26:05;;;;;;;;;;;20.60;62.70;;;;;;10453968;27;93496;-67
2023/05/15 00:31:07;;;;;;;;;;;20.60;62.70;;;;;;10462446;27;93503;-66
2023/05/15 00:36:09;;;;;;;;;;;20.60;62.60;;;;;;10465717;27;96835;-68
2023/05/15 00:41:11;;;;;;;;;;;20.60;62.70;;;;;;10468080;27;94184;-67
2023/05/15 00:46:13;;;;;;;;;;;20.50;62.70;;;;;;10467170;27;94426;-67
2023/05/15 00:51:15;;;;;;;;;;;20.60;62.60;;;;;;10467347;27;94634;-66
2023/05/15 00:56:17;;;;;;;;;;;20.50;62.60;;;;;;10448784;27;93253;-66
2023/05/15 01:01:19;;;;;;;;;;;20.50;62.60;;;;;;10465772;27;93925;-66
2023/05/15 01:06:20;;;;;;;;;;;20.50;62.60;;;;;;10467454;27;94540;-66
2023/05/15 01:11:24;;;;;;;;;;;20.50;62.60;;;;;;10467756;27;92623;-66
2023/05/15 01:16:26;;;;;;;;;;;20.50;62.60;;;;;;10467479;27;93352;-66
2023/05/15 01:21:30;;;;;;;;;;;20.50;62.60;;;;;;10466226;27;93360;-67
2023/05/15 01:26:37;;;;;;;;;;;20.50;62.60;;;;;;10463517;27;95021;-66
2023/05/15 01:31:40;;;;;;;;;;;20.50;62.60;;;;;;10467410;27;93905;-66
2023/05/15 01:36:45;;;;;;;;;;;20.40;62.50;;;;;;10448744;27;93560;-66
2023/05/15 01:41:53;;;;;;;;;;;20.40;62.50;;;;;;10462042;27;93293;-66
2023/05/15 01:46:57;;;;;;;;;;;20.40;62.50;;;;;;10457270;27;94213;-66
2023/05/15 01:52:03;;;;;;;;;;;20.40;62.50;;;;;;10440023;27;94548;-66
2023/05/15 01:57:05;;;;;;;;;;;20.40;62.50;;;;;;10459624;27;94540;-66
2023/05/15 02:02:09;;;;;;;;;;;20.40;62.50;;;;;;10459645;27;93498;-66
2023/05/15 02:07:11;;;;;;;;;;;20.40;62.40;;;;;;10440706;27;93464;-66
2023/05/15 02:12:13;;;;;;;;;;;20.40;62.40;;;;;;10458001;27;92560;-66
2023/05/15 02:17:15;;;;;;;;;;;20.40;62.40;;;;;;10437692;27;95506;-66
2023/05/15 02:22:17;;;;;;;;;;;20.40;62.50;;;;;;10458291;27;93487;-66
2023/05/15 02:27:21;;;;;;;;;;;20.40;62.40;;;;;;10458195;27;94183;-66
2023/05/15 02:32:49;;;;;;;;;;;20.40;62.30;;;;;;10457325;27;93226;-66
2023/05/15 02:37:52;;;;;;;;;;;20.40;62.30;;;;;;10453726;27;94415;-66
2023/05/15 02:42:55;;;;;;;;;;;20.40;62.20;;;;;;10439211;27;93564;-66
2023/05/15 02:47:57;;;;;;;;;;;20.40;62.20;;;;;;10456132;27;93297;-66
2023/05/15 02:53:02;;;;;;;;;;;20.40;62.20;;;;;;10457089;27;92948;-66
2023/05/15 02:58:04;;;;;;;;;;;20.40;62.20;;;;;;10454867;27;93845;-66
2023/05/15 03:03:05;;;;;;;;;;;20.40;62.10;;;;;;10457435;27;93721;-66
2023/05/15 03:08:07;;;;;;;;;;;20.40;62.10;;;;;;10454068;27;95670;-66
2023/05/15 03:13:09;;;;;;;;;;;20.40;62.00;;;;;;10456932;27;93298;-66
2023/05/15 03:18:11;;;;;;;;;;;20.40;62.00;;;;;;10457320;27;93516;-66
2023/05/15 03:23:12;;;;;;;;;;;20.40;62.00;;;;;;10456536;27;93660;-66
2023/05/15 03:28:14;;;;;;;;;;;20.40;62.10;;;;;;10438127;27;93749;-66
2023/05/15 03:33:16;;;;;;;;;;;20.30;61.90;;;;;;10456493;27;94290;-66
2023/05/15 03:38:18;;;;;;;;;;;20.30;61.90;;;;;;10455191;27;92991;-66
2023/05/15 03:43:20;;;;;;;;;;;20.30;62.00;;;;;;10457287;27;92855;-66
2023/05/15 05:06:55;;;;;;;;;;;20.10;62.10;;;;;;10283705;28;95834;-65
2023/05/15 05:12:01;;;;;;;;;;;20.10;62.10;;;;;;10286866;28;94143;-65
2023/05/15 05:17:02;;;;;;;;;;;20.10;62.20;;;;;;10287665;28;93356;-65
2023/05/15 05:22:04;;;;;;;;;;;20.10;62.20;;;;;;10293185;28;94726;-64
2023/05/15 05:27:06;;;;;;;;;;;20.10;62.20;;;;;;10292871;28;93506;-65
2023/05/15 05:32:08;;;;;;;;;;;20.10;62.30;;;;;;10290199;28;93490;-65
2023/05/15 05:37:10;;;;;;;;;;;20.10;62.30;;;;;;10292086;28;94564;-65
2023/05/15 05:42:11;;;;;;;;;;;20.10;62.30;;;;;;10293620;28;92521;-65
2023/05/15 05:47:13;;;;;;;;;;;20.10;62.30;;;;;;10292501;28;93064;-65
2023/05/15 05:52:15;;;;;;;;;;;20.10;62.30;;;;;;10293373;28;94555;-65
2023/05/15 05:57:17;;;;;;;;;;;20.10;63.40;;;;;;10289425;28;95874;-66
2023/05/15 06:02:18;;;;;;;;;;;20.30;63.80;;;;;;10290463;28;93455;-66
2023/05/15 06:07:20;;;;;;;;;;;20.40;63.50;;;;;;10292856;28;94597;-66
2023/05/15 06:12:22;;;;;;;;;;;20.40;63.70;;;;;;10292284;28;93312;-66
2023/05/15 06:17:23;;;;;;;;;;;20.40;63.90;;;;;;10291905;28;94560;-65
2023/05/15 06:22:25;;;;;;;;;;;20.40;63.70;;;;;;10291010;28;93488;-64
2023/05/15 06:27:27;;;;;;;;;;;20.40;63.50;;;;;;10292576;28;94459;-65
2023/05/15 06:32:29;;;;;;;;;;;20.40;63.60;;;;;;10292670;28;92775;-65
2023/05/15 06:37:34;;;;;;;;;;;20.30;63.60;;;;;;10290661;28;93581;-64
2023/05/15 06:42:35;;;;;;;;;;;20.30;63.70;;;;;;10289916;28;94742;-64
2023/05/15 06:47:37;;;;;;;;;;;20.40;63.90;;;;;;10288294;28;96008;-64
2023/05/15 06:52:39;;;;;;;;;;;20.40;63.80;;;;;;10290609;28;94734;-65
2023/05/15 06:57:41;;;;;;;;;;;20.40;63.50;;;;;;10291137;28;94443;-64
2023/05/15 07:02:42;;;;;;;;;;;20.40;63.50;;;;;;10290333;28;93502;-64
2023/05/15 07:07:44;;;;;;;;;;;20.40;63.70;;;;;;10290475;28;94289;-64
2023/05/15 07:12:46;;;;;;;;;;;20.40;63.70;;;;;;10290637;28;93610;-64
2023/05/15 07:17:48;;;;;;;;;;;20.40;63.70;;;;;;10290022;28;92854;-64
2023/05/15 07:22:49;;;;;;;;;;;20.40;63.70;;;;;;10290428;28;92713;-65
2023/05/15 07:27:57;;;;;;;;;;;20.40;63.50;;;;;;10290207;28;94442;-64
2023/05/15 07:32:59;;;;;;;;;;;20.40;63.50;;;;;;10288869;28;93543;-64
2023/05/15 07:38:00;;;;;;;;;;;20.40;63.50;;;;;;10286887;28;95451;-64
2023/05/15 07:43:02;;;;;;;;;;;20.50;63.40;;;;;;10289656;28;94765;-64
2023/05/15 07:48:13;;;;;;;;;;;20.50;63.40;;;;;;10289304;28;93432;-64
2023/05/15 07:53:18;;;;;;;;;;;20.50;63.30;;;;;;10288712;28;93279;-64
2023/05/15 07:58:20;;;;;;;;;;;20.50;63.20;;;;;;10289617;28;94517;-64
2023/05/15 08:03:21;;;;;;;;;;;20.50;63.20;;;;;;10288885;28;93117;-64
2023/05/15 08:08:23;;;;;;;;;;;20.50;63.00;;;;;;10289621;28;93010;-63
2023/05/15 08:13:25;;;;;;;;;;;20.50;63.10;;;;;;10288175;28;91761;-63
2023/05/15 08:18:27;;;;;;;;;;;20.50;63.00;;;;;;10289697;28;94231;-64
2023/05/15 08:23:28;;;;;;;;;;;20.50;63.00;;;;;;10290132;28;94585;-64
2023/05/15 08:28:30;;;;;;;;;;;20.50;63.10;;;;;;10286240;28;95680;-64
2023/05/15 08:33:32;;;;;;;;;;;20.50;63.20;;;;;;10271917;28;94519;-64
2023/05/15 08:38:34;;;;;;;;;;;20.50;63.20;;;;;;10288248;28;93530;-65
2023/05/15 08:43:37;;;;;;;;;;;20.40;63.10;;;;;;10287637;28;93298;-65
2023/05/15 08:48:40;;;;;;;;;;;20.40;63.30;;;;;;10289143;28;94446;-64
2023/05/15 08:53:42;;;;;;;;;;;20.40;63.10;;;;;;10293759;28;94506;-64
2023/05/15 08:58:44;;;;;;;;;;;20.40;63.20;;;;;;10295493;28;93486;-64
2023/05/15 09:03:46;;;;;;;;;;;20.40;63.10;;;;;;10295992;28;93829;-64
2023/05/15 09:08:48;;;;;;;;;;;20.40;63.00;;;;;;10295917;28;94767;-64
2023/05/15 09:13:49;;;;;;;;;;;20.40;63.00;;;;;;10293482;28;93479;-64
2023/05/15 09:18:51;;;;;;;;;;;20.50;62.90;;;;;;10292448;28;95909;-64
2023/05/15 09:23:54;;;;;;;;;;;20.40;62.50;;;;;;10294109;28;94512;-64
2023/05/15 09:29:00;;;;;;;;;;;20.40;62.40;;;;;;10294588;28;93207;-64
2023/05/15 09:34:04;;;;;;;;;;;20.40;62.50;;;;;;10293296;28;94605;-64
2023/05/15 09:39:07;;;;;;;;;;;20.40;62.50;;;;;;10293921;28;92846;-64
2023/05/15 09:44:19;;;;;;;;;;;20.40;62.30;;;;;;10294803;28;93654;-64
2023/05/15 09:49:22;;;;;;;;;;;20.40;62.40;;;;;;10293767;28;93420;-64
2023/05/15 09:54:24;;;;;;;;;;;20.50;62.40;;;;;;10294461;28;93528;-64
2023/05/15 09:59:25;;;;;;;;;;;20.60;62.30;;;;;;10292434;28;94144;-64
2023/05/15 10:04:32;;;;;;;;;;;20.60;62.00;;;;;;10292003;28;92504;-65
2023/05/15 10:09:34;;;;;;;;;;;20.70;61.90;;;;;;10289626;28;96808;-64
2023/05/15 10:14:36;;;;;;;;;;;20.80;61.90;;;;;;10291940;28;94626;-64
2023/05/15 10:19:38;;;;;;;;;;;20.80;61.60;;;;;;10292415;28;93401;-64
2023/05/15 10:25:06;;;;;;;;;;;20.90;61.60;;;;;;10290872;28;94651;-64
2023/05/15 10:30:11;;;;;;;;;;;20.90;61.50;;;;;;10292212;28;93453;-64
2023/05/15 10:35:13;;;;;;;;;;;21.00;61.30;;;;;;10291062;28;93619;-64
2023/05/15 10:40:15;;;;;;;;;;;21.00;61.40;;;;;;10292119;28;94473;-64
2023/05/15 10:45:17;;;;;;;;;;;21.00;61.30;;;;;;10292284;28;92816;-64
2023/05/15 10:50:18;;;;;;;;;;;21.00;61.30;;;;;;10289799;28;93477;-64
2023/05/15 10:55:21;;;;;;;;;;;21.00;61.30;;;;;;10290860;28;93523;-63
2023/05/15 11:00:23;;;;;;;;;;;21.00;61.20;;;;;;10288185;28;95999;-64
2023/05/15 11:05:25;;;;;;;;;;;21.10;61.20;;;;;;10291047;28;92549;-64
2023/05/15 11:10:27;;;;;;;;;;;21.00;61.10;;;;;;10290858;28;93331;-64
2023/05/15 11:15:40;;;;;;;;;;;21.10;61.20;;;;;;10289868;28;94431;-64
2023/05/15 11:21:05;;;;;;;;;;;21.00;61.10;;;;;;10290696;28;93447;-64
2023/05/15 11:26:07;;;;;;;;;;;21.00;61.10;;;;;;10281435;28;93709;-64
2023/05/15 11:31:09;;;;;;;;;;;21.00;61.10;;;;;;10290422;28;94553;-64
2023/05/15 11:36:10;;;;;;;;;;;21.00;61.20;;;;;;10291531;28;93747;-63
2023/05/15 11:41:16;;;;;;;;;;;21.00;61.20;;;;;;10290396;28;94503;-64
2023/05/15 11:46:19;;;;;;;;;;;21.00;61.30;;;;;;10290244;28;94865;-65
2023/05/15 11:51:22;;;;;;;;;;;21.00;61.50;;;;;;10287078;28;97422;-64
2023/05/15 11:56:27;;;;;;;;;;;20.90;61.50;;;;;;10289830;28;93653;-65
2023/05/15 12:01:38;;;;;;;;;;;20.80;61.50;;;;;;10288521;28;93456;-65
2023/05/15 12:06:40;;;;;;;;;;;20.80;61.50;;;;;;10287755;28;93520;-64
2023/05/15 12:11:47;;;;;;;;;;;20.80;61.60;;;;;;10288994;28;94583;-64
2023/05/15 12:16:50;;;;;;;;;;;20.80;61.70;;;;;;10288643;28;93046;-65
2023/05/15 12:21:52;;;;;;;;;;;20.70;61.70;;;;;;10289510;28;93421;-65
2023/05/15 12:26:53;;;;;;;;;;;20.60;61.80;;;;;;10289857;28;93790;-65
2023/05/15 12:31:58;;;;;;;;;;;20.70;61.90;;;;;;10288911;28;94483;-65
2023/05/15 12:37:00;;;;;;;;;;;20.60;62.00;;;;;;10288362;28;93428;-65
2023/05/15 12:42:02;;;;;;;;;;;20.50;62.00;;;;;;10286846;28;96980;-63
2023/05/15 12:47:04;;;;;;;;;;;20.50;62.10;;;;;;10288234;28;93725;-64
2023/05/15 12:52:09;;;;;;;;;;;20.50;62.10;;;;;;10289430;28;93673;-64
2023/05/15 12:57:11;;;;;;;;;;;20.50;62.10;;;;;;10287818;28;92494;-65
2023/05/15 13:02:13;;;;;;;;;;;20.50;62.20;;;;;;10286731;28;93080;-64
2023/05/15 13:07:17;;;;;;;;;;;20.50;62.20;;;;;;10288646;28;93639;-65
2023/05/15 13:12:19;;;;;;;;;;;20.50;62.20;;;;;;10287756;28;94398;-65
2023/05/15 13:17:20;;;;;;;;;;;20.50;62.20;;;;;;10288777;28;93763;-64
2023/05/15 13:22:22;;;;;;;;;;;20.40;62.20;;;;;;10288006;28;93497;-65
2023/05/15 13:27:24;;;;;;;;;;;20.40;62.10;;;;;;10285622;28;94218;-65
2023/05/15 13:32:25;;;;;;;;;;;20.40;62.30;;;;;;10284837;28;96599;-64
2023/05/15 13:37:27;;;;;;;;;;;20.40;62.30;;;;;;10289093;28;93642;-65
2023/05/15 13:42:29;;;;;;;;;;;20.40;62.30;;;;;;10294160;28;94486;-65
2023/05/15 13:47:30;;;;;;;;;;;20.40;62.30;;;;;;10292925;28;93776;-64
2023/05/15 13:52:32;;;;;;;;;;;20.40;62.30;;;;;;10294468;28;94773;-65
2023/05/15 13:57:37;;;;;;;;;;;20.40;62.30;;;;;;10293077;28;93362;-65
2023/05/15 14:02:39;;;;;;;;;;;20.40;62.30;;;;;;10292643;28;93267;-65
2023/05/15 14:07:41;;;;;;;;;;;20.40;62.30;;;;;;10276551;28;92677;-65
2023/05/15 14:12:43;;;;;;;;;;;20.40;62.30;;;;;;10291787;28;94657;-65
2023/05/15 14:17:47;;;;;;;;;;;20.40;62.30;;;;;;10292237;28;93637;-65
2023/05/15 14:22:49;;;;;;;;;;;20.40;62.30;;;;;;10290313;28;97171;-65
2023/05/15 14:27:51;;;;;;;;;;;20.40;62.30;;;;;;10291836;28;92448;-65
2023/05/15 14:32:53;;;;;;;;;;;20.40;62.30;;;;;;10292716;28;94596;-65
2023/05/15 14:37:55;;;;;;;;;;;20.40;62.30;;;;;;10290542;28;93443;-65
2023/05/15 14:42:57;;;;;;;;;;;20.40;62.30;;;;;;10292562;28;93106;-65
2023/05/15 14:47:58;;;;;;;;;;;20.40;62.30;;;;;;10291324;28;93471;-64
2023/05/15 14:53:00;;;;;;;;;;;20.40;62.30;;;;;;10291253;28;94779;-65
2023/05/15 14:58:02;;;;;;;;;;;20.40;62.30;;;;;;10291964;28;92734;-65
2023/05/15 15:03:03;;;;;;;;;;;20.50;62.30;;;;;;10290882;28;92945;-66
2023/05/15 15:08:06;;;;;;;;;;;20.40;62.30;;;;;;10290749;28;94477;-65
2023/05/15 15:13:10;;;;;;;;;;;20.40;62.20;;;;;;10288630;28;96017;-65
2023/05/15 15:18:12;;;;;;;;;;;20.40;62.20;;;;;;10290517;28;94545;-64
2023/05/15 15:23:14;;;;;;;;;;;20.40;62.10;;;;;;10289879;28;93468;-64
2023/05/15 15:28:16;;;;;;;;;;;20.40;62.00;;;;;;10289995;28;94350;-64
2023/05/15 15:33:17;;;;;;;;;;;20.40;61.90;;;;;;10290310;28;93515;-65
2023/05/15 15:38:19;;;;;;;;;;;20.40;61.90;;;;;;10289609;28;93850;-64
2023/05/15 15:43:21;;;;;;;;;;;20.40;61.90;;;;;;10289644;28;93181;-64
2023/05/15 15:48:22;;;;;;;;;;;20.40;61.80;;;;;;10290106;28;93727;-65
2023/05/15 15:53:24;;;;;;;;;;;20.30;61.90;;;;;;10289694;28;94323;-65
2023/05/15 15:58:26;;;;;;;;;;;20.30;61.80;;;;;;10289533;28;94476;-64
2023/05/15 16:03:27;;;;;;;;;;;20.30;61.80;;;;;;10285637;28;95864;-65
2023/05/15 16:08:29;;;;;;;;;;;20.30;61.90;;;;;;10289695;28;93993;-65
2023/05/15 16:13:31;;;;;;;;;;;20.30;61.90;;;;;;10289107;28;93659;-65
2023/05/15 16:18:33;;;;;;;;;;;20.30;61.80;;;;;;10289112;28;93462;-65
2023/05/15 16:23:35;;;;;;;;;;;20.30;61.80;;;;;;10289697;28;92560;-64
2023/05/15 16:28:37;;;;;;;;;;;20.30;61.80;;;;;;10288788;28;93400;-64
2023/05/15 16:33:39;;;;;;;;;;;20.30;61.90;;;;;;10288886;28;93527;-64
2023/05/15 16:38:40;;;;;;;;;;;20.30;61.80;;;;;;10289691;28;93712;-64
2023/05/15 16:43:42;;;;;;;;;;;20.30;61.80;;;;;;10269952;28;93525;-64
2023/05/15 16:48:44;;;;;;;;;;;20.20;61.80;;;;;;10288117;28;94239;-64
2023/05/15 16:53:46;;;;;;;;;;;20.20;62.10;;;;;;10284271;28;95905;-65
2023/05/15 16:58:49;;;;;;;;;;;20.20;62.70;;;;;;10288585;28;94641;-66
2023/05/15 17:03:51;;;;;;;;;;;20.30;65.30;;;;;;10287548;28;94555;-63
2023/05/15 17:08:53;;;;;;;;;;;20.40;63.40;;;;;;10288109;28;94546;-63
2023/05/15 17:13:54;;;;;;;;;;;20.40;63.40;;;;;;10291949;28;94435;-64
2023/05/15 17:18:56;;;;;;;;;;;20.50;63.60;;;;;;10293890;28;92681;-64
2023/05/15 17:23:58;;;;;;;;;;;20.50;64.60;;;;;;10293604;28;93681;-63
2023/05/15 17:29:00;;;;;;;;;;;20.50;63.60;;;;;;10294503;28;92711;-64
2023/05/15 17:34:02;;;;;;;;;;;20.40;63.60;;;;;;10293731;28;93104;-64
2023/05/15 17:39:03;;;;;;;;;;;20.40;63.70;;;;;;10294689;28;93681;-63
2023/05/15 17:44:05;;;;;;;;;;;20.40;63.90;;;;;;10291226;28;96843;-63
2023/05/15 17:49:06;;;;;;;;;;;20.40;63.90;;;;;;10292288;28;94780;-63
2023/05/15 17:54:08;;;;;;;;;;;20.40;64.00;;;;;;10293045;28;94233;-64
2023/05/15 17:59:10;;;;;;;;;;;20.40;64.10;;;;;;10276245;28;92781;-63
2023/05/15 18:04:11;;;;;;;;;;;20.40;64.10;;;;;;10291729;28;93744;-64
2023/05/15 18:09:13;;;;;;;;;;;20.40;64.10;;;;;;10292617;28;94447;-63
2023/05/15 18:14:15;;;;;;;;;;;20.40;64.10;;;;;;10292538;28;93957;-63
2023/05/15 18:19:17;;;;;;;;;;;20.40;64.20;;;;;;10292562;28;91769;-64
2023/05/15 18:24:18;;;;;;;;;;;20.40;64.10;;;;;;10290553;28;93610;-63
2023/05/15 18:29:22;;;;;;;;;;;20.40;64.10;;;;;;10293222;28;92489;-63
2023/05/15 18:34:23;;;;;;;;;;;20.40;64.20;;;;;;10290383;28;96826;-63
2023/05/15 18:39:25;;;;;;;;;;;20.40;64.10;;;;;;10275871;28;92625;-63
2023/05/15 18:44:27;;;;;;;;;;;20.40;64.20;;;;;;10276430;28;93301;-64
2023/05/15 18:49:29;;;;;;;;;;;20.40;64.10;;;;;;10256989;28;93845;-64
2023/05/15 18:54:30;;;;;;;;;;;20.40;64.10;;;;;;10273386;28;93419;-64
2023/05/15 18:59:34;;;;;;;;;;;20.40;64.10;;;;;;10272116;28;94236;-64
2023/05/15 19:04:36;;;;;;;;;;;20.40;64.00;;;;;;10289880;28;92543;-64
2023/05/15 19:09:38;;;;;;;;;;;20.50;64.00;;;;;;10290301;28;93516;-64
2023/05/15 19:14:40;;;;;;;;;;;20.50;64.00;;;;;;10273136;28;94447;-64
2023/05/15 19:19:41;;;;;;;;;;;20.50;63.90;;;;;;10289054;28;93280;-64
2023/05/15 19:24:43;;;;;;;;;;;20.40;63.80;;;;;;10287904;28;96880;-64
2023/05/15 19:29:45;;;;;;;;;;;20.50;63.90;;;;;;10290745;28;94251;-64
2023/05/15 19:34:47;;;;;;;;;;;20.40;63.80;;;;;;10289108;28;94479;-64
2023/05/15 19:39:51;;;;;;;;;;;20.40;63.90;;;;;;10289772;28;113680;-63
2023/05/15 19:44:53;;;;;;;;;;;20.40;63.90;;;;;;10289899;28;94568;-64
2023/05/15 19:49:54;;;;;;;;;;;20.40;63.90;;;;;;10290144;28;94467;-64
2023/05/15 19:54:56;;;;;;;;;;;20.40;63.90;;;;;;10289035;28;92566;-64
2023/05/15 19:59:57;;;;;;;;;;;20.40;63.80;;;;;;10289785;28;93788;-64
2023/05/15 20:04:59;;;;;;;;;;;20.40;63.70;;;;;;10286956;28;93482;-64
2023/05/15 20:10:01;;;;;;;;;;;20.40;63.70;;;;;;10288784;28;93648;-64
2023/05/15 20:15:02;;;;;;;;;;;20.40;63.60;;;;;;10285979;28;95210;-64
2023/05/15 20:20:11;;;;;;;;;;;20.30;63.50;;;;;;10288664;28;94580;-64
2023/05/15 20:25:13;;;;;;;;;;;20.30;63.30;;;;;;10270255;28;93832;-64
2023/05/15 20:30:15;;;;;;;;;;;20.30;63.20;;;;;;10291475;28;94448;-64
2023/05/15 20:35:17;;;;;;;;;;;20.20;63.20;;;;;;10287913;28;94319;-64
2023/05/15 20:40:21;;;;;;;;;;;20.20;63.10;;;;;;10286975;28;93663;-63
2023/05/15 20:45:23;;;;;;;;;;;20.20;62.90;;;;;;10286261;28;93792;-64
2023/05/15 20:50:25;;;;;;;;;;;20.20;62.70;;;;;;10295062;28;94003;-64
2023/05/15 20:55:27;;;;;;;;;;;20.10;62.50;;;;;;10293803;28;93419;-64
2023/05/15 21:00:29;;;;;;;;;;;20.10;62.30;;;;;;10293926;28;93498;-64
2023/05/15 21:05:30;;;;;;;;;;;20.00;62.40;;;;;;10291694;28;95679;-64
2023/05/15 21:10:32;;;;;;;;;;;20.10;62.30;;;;;;10293439;28;93234;-64
2023/05/15 21:15:34;;;;;;;;;;;20.00;62.40;;;;;;10292892;28;93536;-64
2023/05/15 21:20:35;;;;;;;;;;;20.00;62.30;;;;;;10293962;28;94628;-64
2023/05/15 21:25:37;;;;;;;;;;;20.00;62.30;;;;;;10294350;28;94138;-64
2023/05/15 21:30:39;;;;;;;;;;;19.90;62.20;;;;;;10293827;28;94639;-63
2023/05/15 21:35:40;;;;;;;;;;;20.00;61.90;;;;;;10292844;28;94445;-63
2023/05/15 21:40:43;;;;;;;;;;;19.90;61.70;;;;;;10293702;28;93818;-63
2023/05/15 21:45:45;;;;;;;;;;;20.00;61.90;;;;;;10292572;28;93654;-63
2023/05/15 21:50:46;;;;;;;;;;;19.90;61.80;;;;;;10292157;28;93433;-63
2023/05/15 21:55:50;;;;;;;;;;;19.90;61.90;;;;;;10290783;28;96845;-63
2023/05/15 22:00:52;;;;;;;;;;;19.90;61.60;;;;;;10291068;28;94479;-64
2023/05/15 22:05:54;;;;;;;;;;;19.90;61.50;;;;;;10291854;28;93275;-64
2023/05/15 22:10:55;;;;;;;;;;;19.90;61.50;;;;;;10291861;28;93929;-64
2023/05/15 22:15:57;;;;;;;;;;;19.90;61.50;;;;;;10291954;28;94524;-64
2023/05/15 22:21:00;;;;;;;;;;;19.90;61.40;;;;;;10290560;28;94634;-65
2023/05/15 22:26:02;;;;;;;;;;;19.90;61.30;;;;;;10291223;28;93617;-64
2023/05/15 22:31:04;;;;;;;;;;;19.90;61.30;;;;;;10291210;28;92370;-65
2023/05/15 22:36:05;;;;;;;;;;;19.90;61.20;;;;;;10291984;28;94412;-64
2023/05/15 22:41:07;;;;;;;;;;;19.90;61.00;;;;;;10290681;28;93471;-64
2023/05/15 22:46:09;;;;;;;;;;;19.90;61.10;;;;;;10289165;28;96840;-64
2023/05/15 22:51:11;;;;;;;;;;;19.90;60.90;;;;;;10290404;28;93654;-65
2023/05/15 22:56:12;;;;;;;;;;;19.90;60.80;;;;;;10290512;28;93536;-64
2023/05/15 23:01:14;;;;;;;;;;;19.90;60.80;;;;;;10291074;28;94527;-64
2023/05/15 23:06:16;;;;;;;;;;;19.90;60.70;;;;;;10291390;28;93371;-65
2023/05/15 23:11:19;;;;;;;;;;;19.90;60.50;;;;;;10290625;28;93278;-64
2023/05/15 23:16:21;;;;;;;;;;;19.80;60.50;;;;;;10289548;28;93132;-64
2023/05/15 23:21:22;;;;;;;;;;;19.80;60.40;;;;;;10290461;28;91697;-65
2023/05/15 23:26:24;;;;;;;;;;;19.80;60.30;;;;;;10289767;28;94340;-65
2023/05/15 23:31:26;;;;;;;;;;;19.80;60.30;;;;;;10290080;28;94455;-64
2023/05/15 23:36:28;;;;;;;;;;;19.80;60.30;;;;;;10286367;28;95935;-65
2023/05/15 23:41:30;;;;;;;;;;;19.80;60.20;;;;;;10288762;28;94093;-65
2023/05/15 23:46:33;;;;;;;;;;;19.80;60.20;;;;;;10288949;28;93125;-64
2023/05/15 23:51:35;;;;;;;;;;;19.80;60.30;;;;;;10288181;28;93633;-64
2023/05/15 23:56:37;;;;;;;;;;;19.70;60.10;;;;;;10289055;28;94107;-64
